sensor_id;sensor_type;location;lat;lon;timestamp;P1;durP1;ratioP1;P2;durP2;ratioP2
45792;SDS011;31495;42.740;22.908;2023-03-23T00:00:25;24.70;;;12.48;;
45792;SDS011;31495;42.740;22.908;2023-03-23T00:01:25;24.30;;;11.90;;
45792;SDS011;31495;42.740;22.908;2023-03-23T00:02:30;24.75;;;12.43;;
45792;SDS011;31495;42.740;22.908;2023-03-23T00:03:34;22.33;;;11.73;;
45792;SDS011;31495;42.740;22.908;2023-03-23T00:04:33;20.48;;;11.70;;
45792;SDS011;31495;42.740;22.908;2023-03-23T00:05:33;21.80;;;13.20;;
45792;SDS011;31495;42.740;22.908;2023-03-23T00:06:36;25.83;;;14.55;;
45792;SDS011;31495;42.740;22.908;2023-03-23T00:07:36;24.90;;;13.43;;
45792;SDS011;31495;42.740;22.908;2023-03-23T00:08:38;23.98;;;12.82;;
45792;SDS011;31495;42.740;22.908;2023-03-23T00:09:44;24.40;;;13.38;;
45792;SDS011;31495;42.740;22.908;2023-03-23T00:10:43;25.13;;;15.15;;
45792;SDS011;31495;42.740;22.908;2023-03-23T00:11:43;29.30;;;16.27;;
45792;SDS011;31495;42.740;22.908;2023-03-23T00:12:42;26.13;;;13.85;;
45792;SDS011;31495;42.740;22.908;2023-03-23T00:13:45;21.35;;;12.23;;
45792;SDS011;31495;42.740;22.908;2023-03-23T00:15:46;25.95;;;14.63;;
45792;SDS011;31495;42.740;22.908;2023-03-23T00:16:48;24.08;;;12.75;;
45792;SDS011;31495;42.740;22.908;2023-03-23T00:17:48;26.25;;;12.73;;
45792;SDS011;31495;42.740;22.908;2023-03-23T00:18:49;22.40;;;12.38;;
45792;SDS011;31495;42.740;22.908;2023-03-23T00:19:53;23.00;;;12.82;;
45792;SDS011;31495;42.740;22.908;2023-03-23T00:20:53;22.25;;;12.27;;
45792;SDS011;31495;42.740;22.908;2023-03-23T00:21:54;27.73;;;12.60;;
45792;SDS011;31495;42.740;22.908;2023-03-23T00:22:54;23.15;;;12.75;;
45792;SDS011;31495;42.740;22.908;2023-03-23T00:24:19;22.88;;;11.50;;
45792;SDS011;31495;42.740;22.908;2023-03-23T00:25:18;24.92;;;11.07;;
45792;SDS011;31495;42.740;22.908;2023-03-23T00:26:17;21.90;;;10.70;;
45792;SDS011;31495;42.740;22.908;2023-03-23T00:27:17;20.25;;;11.10;;
45792;SDS011;31495;42.740;22.908;2023-03-23T00:28:17;20.02;;;11.45;;
45792;SDS011;31495;42.740;22.908;2023-03-23T00:29:18;19.73;;;11.50;;
45792;SDS011;31495;42.740;22.908;2023-03-23T00:30:20;20.13;;;11.63;;
45792;SDS011;31495;42.740;22.908;2023-03-23T00:31:21;17.38;;;9.82;;
45792;SDS011;31495;42.740;22.908;2023-03-23T00:32:21;19.58;;;10.55;;
45792;SDS011;31495;42.740;22.908;2023-03-23T00:33:27;17.63;;;10.50;;
45792;SDS011;31495;42.740;22.908;2023-03-23T00:34:27;18.15;;;10.48;;
45792;SDS011;31495;42.740;22.908;2023-03-23T00:35:31;21.02;;;10.63;;
45792;SDS011;31495;42.740;22.908;2023-03-23T00:36:31;17.33;;;10.63;;
45792;SDS011;31495;42.740;22.908;2023-03-23T00:37:33;19.55;;;9.85;;
45792;SDS011;31495;42.740;22.908;2023-03-23T00:38:34;27.13;;;10.23;;
45792;SDS011;31495;42.740;22.908;2023-03-23T00:39:34;19.67;;;10.70;;
45792;SDS011;31495;42.740;22.908;2023-03-23T00:40:36;17.88;;;11.05;;
45792;SDS011;31495;42.740;22.908;2023-03-23T00:41:35;25.90;;;13.00;;
45792;SDS011;31495;42.740;22.908;2023-03-23T00:42:35;22.92;;;12.18;;
45792;SDS011;31495;42.740;22.908;2023-03-23T00:43:36;25.65;;;11.82;;
45792;SDS011;31495;42.740;22.908;2023-03-23T00:44:36;20.38;;;10.38;;
45792;SDS011;31495;42.740;22.908;2023-03-23T00:45:35;22.30;;;11.80;;
45792;SDS011;31495;42.740;22.908;2023-03-23T00:46:35;23.85;;;11.70;;
45792;SDS011;31495;42.740;22.908;2023-03-23T00:47:44;19.60;;;11.07;;
45792;SDS011;31495;42.740;22.908;2023-03-23T00:48:46;23.17;;;11.27;;
45792;SDS011;31495;42.740;22.908;2023-03-23T00:49:45;20.70;;;11.18;;
45792;SDS011;31495;42.740;22.908;2023-03-23T00:50:45;20.15;;;10.20;;
45792;SDS011;31495;42.740;22.908;2023-03-23T00:51:45;24.92;;;12.93;;
45792;SDS011;31495;42.740;22.908;2023-03-23T00:52:45;23.63;;;11.98;;
45792;SDS011;31495;42.740;22.908;2023-03-23T00:53:45;21.02;;;11.98;;
45792;SDS011;31495;42.740;22.908;2023-03-23T00:54:46;23.10;;;12.63;;
45792;SDS011;31495;42.740;22.908;2023-03-23T00:55:47;24.65;;;12.82;;
45792;SDS011;31495;42.740;22.908;2023-03-23T00:56:47;19.20;;;11.18;;
45792;SDS011;31495;42.740;22.908;2023-03-23T00:57:46;21.83;;;11.90;;
45792;SDS011;31495;42.740;22.908;2023-03-23T00:58:49;23.60;;;13.07;;
45792;SDS011;31495;42.740;22.908;2023-03-23T00:59:50;22.58;;;12.32;;
45792;SDS011;31495;42.740;22.908;2023-03-23T01:00:50;19.67;;;11.63;;
45792;SDS011;31495;42.740;22.908;2023-03-23T01:01:49;19.38;;;11.77;;
45792;SDS011;31495;42.740;22.908;2023-03-23T01:02:49;21.17;;;11.98;;
45792;SDS011;31495;42.740;22.908;2023-03-23T01:03:54;20.50;;;11.48;;
45792;SDS011;31495;42.740;22.908;2023-03-23T01:04:59;21.83;;;12.48;;
45792;SDS011;31495;42.740;22.908;2023-03-23T01:06:06;21.35;;;10.65;;
45792;SDS011;31495;42.740;22.908;2023-03-23T01:07:07;27.17;;;12.88;;
45792;SDS011;31495;42.740;22.908;2023-03-23T01:08:07;41.28;;;12.75;;
45792;SDS011;31495;42.740;22.908;2023-03-23T01:09:08;22.05;;;12.80;;
45792;SDS011;31495;42.740;22.908;2023-03-23T01:10:10;24.42;;;12.68;;
45792;SDS011;31495;42.740;22.908;2023-03-23T01:11:15;27.50;;;13.60;;
45792;SDS011;31495;42.740;22.908;2023-03-23T01:12:15;23.35;;;12.70;;
45792;SDS011;31495;42.740;22.908;2023-03-23T01:13:15;22.67;;;12.63;;
45792;SDS011;31495;42.740;22.908;2023-03-23T01:14:16;20.95;;;13.52;;
45792;SDS011;31495;42.740;22.908;2023-03-23T01:15:17;17.90;;;9.35;;
45792;SDS011;31495;42.740;22.908;2023-03-23T01:16:18;18.08;;;9.32;;
45792;SDS011;31495;42.740;22.908;2023-03-23T01:17:18;16.65;;;9.10;;
45792;SDS011;31495;42.740;22.908;2023-03-23T01:18:18;17.35;;;9.45;;
45792;SDS011;31495;42.740;22.908;2023-03-23T01:19:18;16.42;;;8.02;;
45792;SDS011;31495;42.740;22.908;2023-03-23T01:20:18;18.45;;;9.90;;
45792;SDS011;31495;42.740;22.908;2023-03-23T01:21:19;16.98;;;9.15;;
45792;SDS011;31495;42.740;22.908;2023-03-23T01:22:19;15.77;;;8.60;;
45792;SDS011;31495;42.740;22.908;2023-03-23T01:23:19;17.05;;;9.57;;
45792;SDS011;31495;42.740;22.908;2023-03-23T01:24:18;16.45;;;8.60;;
45792;SDS011;31495;42.740;22.908;2023-03-23T01:25:18;19.45;;;10.10;;
45792;SDS011;31495;42.740;22.908;2023-03-23T01:26:19;18.58;;;10.20;;
45792;SDS011;31495;42.740;22.908;2023-03-23T01:27:21;17.42;;;9.07;;
45792;SDS011;31495;42.740;22.908;2023-03-23T01:28:20;18.17;;;9.38;;
45792;SDS011;31495;42.740;22.908;2023-03-23T01:29:19;17.60;;;9.70;;
45792;SDS011;31495;42.740;22.908;2023-03-23T01:30:19;19.70;;;11.52;;
45792;SDS011;31495;42.740;22.908;2023-03-23T01:31:20;20.10;;;9.63;;
45792;SDS011;31495;42.740;22.908;2023-03-23T01:32:21;20.85;;;10.18;;
45792;SDS011;31495;42.740;22.908;2023-03-23T01:33:20;20.75;;;9.93;;
45792;SDS011;31495;42.740;22.908;2023-03-23T01:34:20;15.82;;;8.93;;
45792;SDS011;31495;42.740;22.908;2023-03-23T01:35:20;18.48;;;9.88;;
45792;SDS011;31495;42.740;22.908;2023-03-23T01:36:21;18.85;;;9.65;;
45792;SDS011;31495;42.740;22.908;2023-03-23T01:37:23;18.63;;;10.48;;
45792;SDS011;31495;42.740;22.908;2023-03-23T01:38:25;17.27;;;9.30;;
45792;SDS011;31495;42.740;22.908;2023-03-23T01:39:25;18.45;;;9.15;;
45792;SDS011;31495;42.740;22.908;2023-03-23T01:40:26;19.27;;;9.25;;
45792;SDS011;31495;42.740;22.908;2023-03-23T01:41:26;19.15;;;9.52;;
45792;SDS011;31495;42.740;22.908;2023-03-23T01:42:30;16.48;;;8.77;;
45792;SDS011;31495;42.740;22.908;2023-03-23T01:43:32;22.25;;;9.48;;
45792;SDS011;31495;42.740;22.908;2023-03-23T01:45:32;23.77;;;9.50;;
45792;SDS011;31495;42.740;22.908;2023-03-23T01:46:35;19.83;;;8.98;;
45792;SDS011;31495;42.740;22.908;2023-03-23T01:47:35;26.92;;;8.23;;
45792;SDS011;31495;42.740;22.908;2023-03-23T01:48:35;18.70;;;8.05;;
45792;SDS011;31495;42.740;22.908;2023-03-23T01:49:39;12.80;;;6.72;;
45792;SDS011;31495;42.740;22.908;2023-03-23T01:51:25;13.82;;;6.60;;
45792;SDS011;31495;42.740;22.908;2023-03-23T01:52:09;13.00;;;7.07;;
45792;SDS011;31495;42.740;22.908;2023-03-23T01:53:18;12.85;;;6.70;;
45792;SDS011;31495;42.740;22.908;2023-03-23T01:54:20;12.90;;;6.80;;
45792;SDS011;31495;42.740;22.908;2023-03-23T01:55:21;13.20;;;6.22;;
45792;SDS011;31495;42.740;22.908;2023-03-23T01:56:24;14.38;;;6.68;;
45792;SDS011;31495;42.740;22.908;2023-03-23T01:57:29;11.82;;;6.50;;
45792;SDS011;31495;42.740;22.908;2023-03-23T01:58:30;12.38;;;6.78;;
45792;SDS011;31495;42.740;22.908;2023-03-23T01:59:33;12.95;;;6.72;;
45792;SDS011;31495;42.740;22.908;2023-03-23T02:00:34;15.07;;;7.22;;
45792;SDS011;31495;42.740;22.908;2023-03-23T02:01:34;13.82;;;6.75;;
45792;SDS011;31495;42.740;22.908;2023-03-23T02:02:37;11.90;;;6.72;;
45792;SDS011;31495;42.740;22.908;2023-03-23T02:03:39;13.40;;;7.40;;
45792;SDS011;31495;42.740;22.908;2023-03-23T02:04:42;16.60;;;9.20;;
45792;SDS011;31495;42.740;22.908;2023-03-23T02:05:42;22.50;;;9.70;;
45792;SDS011;31495;42.740;22.908;2023-03-23T02:06:43;16.40;;;9.02;;
45792;SDS011;31495;42.740;22.908;2023-03-23T02:07:43;15.45;;;8.95;;
45792;SDS011;31495;42.740;22.908;2023-03-23T02:08:44;15.95;;;8.43;;
45792;SDS011;31495;42.740;22.908;2023-03-23T02:09:47;14.85;;;7.65;;
45792;SDS011;31495;42.740;22.908;2023-03-23T02:10:49;18.98;;;8.30;;
45792;SDS011;31495;42.740;22.908;2023-03-23T02:11:48;16.30;;;7.95;;
45792;SDS011;31495;42.740;22.908;2023-03-23T02:12:52;14.88;;;8.40;;
45792;SDS011;31495;42.740;22.908;2023-03-23T02:13:51;16.88;;;8.98;;
45792;SDS011;31495;42.740;22.908;2023-03-23T02:14:51;14.98;;;8.50;;
45792;SDS011;31495;42.740;22.908;2023-03-23T02:15:57;16.75;;;7.90;;
45792;SDS011;31495;42.740;22.908;2023-03-23T02:17:37;17.73;;;8.30;;
45792;SDS011;31495;42.740;22.908;2023-03-23T02:19:59;17.98;;;8.35;;
45792;SDS011;31495;42.740;22.908;2023-03-23T02:21:25;17.92;;;8.48;;
45792;SDS011;31495;42.740;22.908;2023-03-23T02:22:44;13.40;;;6.97;;
45792;SDS011;31495;42.740;22.908;2023-03-23T02:24:26;20.40;;;8.20;;
45792;SDS011;31495;42.740;22.908;2023-03-23T02:26:50;20.67;;;9.20;;
45792;SDS011;31495;42.740;22.908;2023-03-23T02:32:09;19.05;;;7.65;;
45792;SDS011;31495;42.740;22.908;2023-03-23T02:36:41;12.43;;;6.57;;
45792;SDS011;31495;42.740;22.908;2023-03-23T02:37:47;14.98;;;7.45;;
45792;SDS011;31495;42.740;22.908;2023-03-23T02:38:55;16.38;;;7.32;;
45792;SDS011;31495;42.740;22.908;2023-03-23T02:40:06;15.52;;;8.25;;
45792;SDS011;31495;42.740;22.908;2023-03-23T02:41:11;16.75;;;8.27;;
45792;SDS011;31495;42.740;22.908;2023-03-23T02:42:13;17.10;;;8.15;;
45792;SDS011;31495;42.740;22.908;2023-03-23T02:43:18;21.42;;;8.63;;
45792;SDS011;31495;42.740;22.908;2023-03-23T02:44:22;15.98;;;8.07;;
45792;SDS011;31495;42.740;22.908;2023-03-23T02:45:24;15.18;;;7.70;;
45792;SDS011;31495;42.740;22.908;2023-03-23T02:46:26;14.10;;;7.47;;
45792;SDS011;31495;42.740;22.908;2023-03-23T02:47:27;17.80;;;9.80;;
45792;SDS011;31495;42.740;22.908;2023-03-23T02:48:29;19.95;;;9.23;;
45792;SDS011;31495;42.740;22.908;2023-03-23T02:49:30;19.00;;;9.85;;
45792;SDS011;31495;42.740;22.908;2023-03-23T02:50:34;19.65;;;8.70;;
45792;SDS011;31495;42.740;22.908;2023-03-23T02:51:36;21.42;;;10.25;;
45792;SDS011;31495;42.740;22.908;2023-03-23T02:52:39;18.13;;;9.25;;
45792;SDS011;31495;42.740;22.908;2023-03-23T02:53:41;17.38;;;9.15;;
45792;SDS011;31495;42.740;22.908;2023-03-23T02:54:42;18.42;;;8.07;;
45792;SDS011;31495;42.740;22.908;2023-03-23T02:55:48;21.52;;;9.15;;
45792;SDS011;31495;42.740;22.908;2023-03-23T02:56:51;19.25;;;9.20;;
45792;SDS011;31495;42.740;22.908;2023-03-23T02:57:53;17.48;;;9.32;;
45792;SDS011;31495;42.740;22.908;2023-03-23T02:58:54;18.17;;;7.97;;
45792;SDS011;31495;42.740;22.908;2023-03-23T02:59:54;17.77;;;9.32;;
45792;SDS011;31495;42.740;22.908;2023-03-23T03:00:54;19.83;;;9.80;;
45792;SDS011;31495;42.740;22.908;2023-03-23T03:01:57;25.60;;;10.23;;
45792;SDS011;31495;42.740;22.908;2023-03-23T03:03:02;22.48;;;10.48;;
45792;SDS011;31495;42.740;22.908;2023-03-23T03:04:14;23.20;;;10.05;;
45792;SDS011;31495;42.740;22.908;2023-03-23T03:06:54;23.58;;;9.40;;
45792;SDS011;31495;42.740;22.908;2023-03-23T03:08:13;38.42;;;10.55;;
45792;SDS011;31495;42.740;22.908;2023-03-23T03:09:29;24.98;;;9.75;;
45792;SDS011;31495;42.740;22.908;2023-03-23T03:10:40;30.05;;;13.80;;
45792;SDS011;31495;42.740;22.908;2023-03-23T03:11:48;25.00;;;11.05;;
45792;SDS011;31495;42.740;22.908;2023-03-23T03:14:04;27.15;;;10.93;;
45792;SDS011;31495;42.740;22.908;2023-03-23T03:15:10;28.83;;;9.68;;
45792;SDS011;31495;42.740;22.908;2023-03-23T03:18:26;35.67;;;10.30;;
45792;SDS011;31495;42.740;22.908;2023-03-23T03:19:22;23.60;;;9.02;;
45792;SDS011;31495;42.740;22.908;2023-03-23T03:20:25;30.08;;;8.90;;
45792;SDS011;31495;42.740;22.908;2023-03-23T03:21:27;31.20;;;8.35;;
45792;SDS011;31495;42.740;22.908;2023-03-23T03:22:30;21.85;;;7.03;;
45792;SDS011;31495;42.740;22.908;2023-03-23T03:23:30;22.70;;;7.45;;
45792;SDS011;31495;42.740;22.908;2023-03-23T03:24:32;18.63;;;7.30;;
45792;SDS011;31495;42.740;22.908;2023-03-23T03:25:32;26.65;;;8.00;;
45792;SDS011;31495;42.740;22.908;2023-03-23T03:26:32;24.65;;;7.97;;
45792;SDS011;31495;42.740;22.908;2023-03-23T03:27:33;16.30;;;7.88;;
45792;SDS011;31495;42.740;22.908;2023-03-23T03:28:34;23.20;;;8.30;;
45792;SDS011;31495;42.740;22.908;2023-03-23T03:29:34;24.73;;;7.72;;
45792;SDS011;31495;42.740;22.908;2023-03-23T03:30:40;29.02;;;9.30;;
45792;SDS011;31495;42.740;22.908;2023-03-23T03:31:43;30.10;;;8.68;;
45792;SDS011;31495;42.740;22.908;2023-03-23T03:32:45;24.52;;;8.50;;
45792;SDS011;31495;42.740;22.908;2023-03-23T03:33:50;36.85;;;11.32;;
45792;SDS011;31495;42.740;22.908;2023-03-23T03:34:49;29.80;;;11.15;;
45792;SDS011;31495;42.740;22.908;2023-03-23T03:35:49;29.98;;;10.18;;
45792;SDS011;31495;42.740;22.908;2023-03-23T03:36:51;24.88;;;10.48;;
45792;SDS011;31495;42.740;22.908;2023-03-23T03:37:53;25.98;;;9.60;;
45792;SDS011;31495;42.740;22.908;2023-03-23T03:38:53;31.15;;;9.90;;
45792;SDS011;31495;42.740;22.908;2023-03-23T03:39:56;24.05;;;8.25;;
45792;SDS011;31495;42.740;22.908;2023-03-23T03:40:55;32.58;;;9.63;;
45792;SDS011;31495;42.740;22.908;2023-03-23T03:41:56;24.92;;;8.27;;
45792;SDS011;31495;42.740;22.908;2023-03-23T03:42:55;23.10;;;9.57;;
45792;SDS011;31495;42.740;22.908;2023-03-23T03:43:55;29.38;;;8.30;;
45792;SDS011;31495;42.740;22.908;2023-03-23T03:44:54;35.33;;;9.80;;
45792;SDS011;31495;42.740;22.908;2023-03-23T03:45:54;19.10;;;8.18;;
45792;SDS011;31495;42.740;22.908;2023-03-23T03:46:54;17.50;;;8.40;;
45792;SDS011;31495;42.740;22.908;2023-03-23T03:47:53;18.83;;;7.25;;
45792;SDS011;31495;42.740;22.908;2023-03-23T03:48:53;23.42;;;8.82;;
45792;SDS011;31495;42.740;22.908;2023-03-23T03:49:53;16.83;;;7.45;;
45792;SDS011;31495;42.740;22.908;2023-03-23T03:50:52;19.90;;;9.75;;
45792;SDS011;31495;42.740;22.908;2023-03-23T03:51:55;23.13;;;8.90;;
45792;SDS011;31495;42.740;22.908;2023-03-23T03:52:55;19.70;;;7.90;;
45792;SDS011;31495;42.740;22.908;2023-03-23T03:53:54;22.15;;;9.98;;
45792;SDS011;31495;42.740;22.908;2023-03-23T03:54:54;17.17;;;7.60;;
45792;SDS011;31495;42.740;22.908;2023-03-23T03:55:55;19.40;;;7.93;;
45792;SDS011;31495;42.740;22.908;2023-03-23T03:56:56;28.25;;;9.18;;
45792;SDS011;31495;42.740;22.908;2023-03-23T03:57:57;18.40;;;8.18;;
45792;SDS011;31495;42.740;22.908;2023-03-23T03:58:57;17.15;;;8.98;;
45792;SDS011;31495;42.740;22.908;2023-03-23T03:59:58;18.80;;;10.15;;
45792;SDS011;31495;42.740;22.908;2023-03-23T04:00:58;19.30;;;10.27;;
45792;SDS011;31495;42.740;22.908;2023-03-23T04:01:58;16.63;;;8.77;;
45792;SDS011;31495;42.740;22.908;2023-03-23T04:02:57;25.38;;;9.35;;
45792;SDS011;31495;42.740;22.908;2023-03-23T04:03:58;24.35;;;8.55;;
45792;SDS011;31495;42.740;22.908;2023-03-23T04:04:58;26.27;;;8.43;;
45792;SDS011;31495;42.740;22.908;2023-03-23T04:05:57;22.23;;;8.68;;
45792;SDS011;31495;42.740;22.908;2023-03-23T04:06:58;21.00;;;8.43;;
45792;SDS011;31495;42.740;22.908;2023-03-23T04:07:57;13.18;;;7.40;;
45792;SDS011;31495;42.740;22.908;2023-03-23T04:09:01;20.30;;;8.30;;
45792;SDS011;31495;42.740;22.908;2023-03-23T04:10:05;22.25;;;8.75;;
45792;SDS011;31495;42.740;22.908;2023-03-23T04:11:06;14.38;;;8.20;;
45792;SDS011;31495;42.740;22.908;2023-03-23T04:12:06;20.33;;;9.40;;
45792;SDS011;31495;42.740;22.908;2023-03-23T04:13:05;23.25;;;9.05;;
45792;SDS011;31495;42.740;22.908;2023-03-23T04:14:05;26.40;;;9.38;;
45792;SDS011;31495;42.740;22.908;2023-03-23T04:15:06;21.58;;;9.00;;
45792;SDS011;31495;42.740;22.908;2023-03-23T04:17:06;18.50;;;7.88;;
45792;SDS011;31495;42.740;22.908;2023-03-23T04:18:08;20.70;;;9.38;;
45792;SDS011;31495;42.740;22.908;2023-03-23T04:19:08;38.70;;;16.48;;
45792;SDS011;31495;42.740;22.908;2023-03-23T04:20:07;46.97;;;17.90;;
45792;SDS011;31495;42.740;22.908;2023-03-23T04:21:12;36.03;;;17.33;;
45792;SDS011;31495;42.740;22.908;2023-03-23T04:22:13;32.53;;;15.20;;
45792;SDS011;31495;42.740;22.908;2023-03-23T04:23:13;38.35;;;16.85;;
45792;SDS011;31495;42.740;22.908;2023-03-23T04:24:13;45.83;;;19.52;;
45792;SDS011;31495;42.740;22.908;2023-03-23T04:25:12;59.78;;;23.48;;
45792;SDS011;31495;42.740;22.908;2023-03-23T04:26:12;50.03;;;19.90;;
45792;SDS011;31495;42.740;22.908;2023-03-23T04:27:11;34.45;;;16.55;;
45792;SDS011;31495;42.740;22.908;2023-03-23T04:28:12;36.40;;;15.02;;
45792;SDS011;31495;42.740;22.908;2023-03-23T04:29:13;41.13;;;16.77;;
45792;SDS011;31495;42.740;22.908;2023-03-23T04:30:12;49.70;;;19.52;;
45792;SDS011;31495;42.740;22.908;2023-03-23T04:31:12;49.10;;;20.67;;
45792;SDS011;31495;42.740;22.908;2023-03-23T04:32:13;46.55;;;21.13;;
45792;SDS011;31495;42.740;22.908;2023-03-23T04:33:13;47.80;;;19.73;;
45792;SDS011;31495;42.740;22.908;2023-03-23T04:34:13;52.53;;;24.75;;
45792;SDS011;31495;42.740;22.908;2023-03-23T04:35:14;67.18;;;25.08;;
45792;SDS011;31495;42.740;22.908;2023-03-23T04:36:13;53.80;;;26.83;;
45792;SDS011;31495;42.740;22.908;2023-03-23T04:38:15;51.13;;;23.67;;
45792;SDS011;31495;42.740;22.908;2023-03-23T04:39:15;49.60;;;24.23;;
45792;SDS011;31495;42.740;22.908;2023-03-23T04:40:16;45.38;;;23.65;;
45792;SDS011;31495;42.740;22.908;2023-03-23T04:41:16;40.55;;;18.10;;
45792;SDS011;31495;42.740;22.908;2023-03-23T04:42:15;43.88;;;18.80;;
45792;SDS011;31495;42.740;22.908;2023-03-23T04:43:15;46.70;;;20.08;;
45792;SDS011;31495;42.740;22.908;2023-03-23T04:44:14;56.70;;;22.05;;
45792;SDS011;31495;42.740;22.908;2023-03-23T04:45:18;51.53;;;21.27;;
45792;SDS011;31495;42.740;22.908;2023-03-23T04:46:20;49.42;;;21.20;;
45792;SDS011;31495;42.740;22.908;2023-03-23T04:47:20;50.85;;;20.52;;
45792;SDS011;31495;42.740;22.908;2023-03-23T04:48:20;39.70;;;18.20;;
45792;SDS011;31495;42.740;22.908;2023-03-23T04:49:21;43.47;;;18.30;;
45792;SDS011;31495;42.740;22.908;2023-03-23T04:50:20;33.03;;;15.77;;
45792;SDS011;31495;42.740;22.908;2023-03-23T04:51:22;31.55;;;16.55;;
45792;SDS011;31495;42.740;22.908;2023-03-23T04:52:27;32.85;;;16.10;;
45792;SDS011;31495;42.740;22.908;2023-03-23T04:53:30;32.40;;;17.52;;
45792;SDS011;31495;42.740;22.908;2023-03-23T04:54:30;26.10;;;14.80;;
45792;SDS011;31495;42.740;22.908;2023-03-23T04:55:34;24.60;;;11.85;;
45792;SDS011;31495;42.740;22.908;2023-03-23T04:56:37;19.55;;;10.93;;
45792;SDS011;31495;42.740;22.908;2023-03-23T04:57:37;24.27;;;12.90;;
45792;SDS011;31495;42.740;22.908;2023-03-23T04:58:37;18.52;;;10.93;;
45792;SDS011;31495;42.740;22.908;2023-03-23T04:59:38;18.45;;;10.48;;
45792;SDS011;31495;42.740;22.908;2023-03-23T05:00:38;20.75;;;12.32;;
45792;SDS011;31495;42.740;22.908;2023-03-23T05:01:39;24.38;;;14.05;;
45792;SDS011;31495;42.740;22.908;2023-03-23T05:02:44;25.67;;;14.48;;
45792;SDS011;31495;42.740;22.908;2023-03-23T05:03:51;25.48;;;15.52;;
45792;SDS011;31495;42.740;22.908;2023-03-23T05:04:51;29.90;;;14.65;;
45792;SDS011;31495;42.740;22.908;2023-03-23T05:05:50;31.98;;;16.25;;
45792;SDS011;31495;42.740;22.908;2023-03-23T05:06:51;26.63;;;14.73;;
45792;SDS011;31495;42.740;22.908;2023-03-23T05:07:52;26.15;;;15.68;;
45792;SDS011;31495;42.740;22.908;2023-03-23T05:08:52;25.63;;;14.25;;
45792;SDS011;31495;42.740;22.908;2023-03-23T05:09:51;24.98;;;13.40;;
45792;SDS011;31495;42.740;22.908;2023-03-23T05:10:55;26.73;;;13.18;;
45792;SDS011;31495;42.740;22.908;2023-03-23T05:11:56;24.70;;;13.48;;
45792;SDS011;31495;42.740;22.908;2023-03-23T05:12:58;23.60;;;12.50;;
45792;SDS011;31495;42.740;22.908;2023-03-23T05:13:57;24.30;;;13.02;;
45792;SDS011;31495;42.740;22.908;2023-03-23T05:14:57;24.35;;;12.95;;
45792;SDS011;31495;42.740;22.908;2023-03-23T05:15:56;23.10;;;13.43;;
45792;SDS011;31495;42.740;22.908;2023-03-23T05:16:55;28.15;;;14.68;;
45792;SDS011;31495;42.740;22.908;2023-03-23T05:17:55;24.27;;;14.35;;
45792;SDS011;31495;42.740;22.908;2023-03-23T05:18:55;20.70;;;11.88;;
45792;SDS011;31495;42.740;22.908;2023-03-23T05:19:56;20.60;;;11.35;;
45792;SDS011;31495;42.740;22.908;2023-03-23T05:20:59;20.33;;;12.50;;
45792;SDS011;31495;42.740;22.908;2023-03-23T05:21:59;24.33;;;13.75;;
45792;SDS011;31495;42.740;22.908;2023-03-23T05:23:03;22.63;;;13.27;;
45792;SDS011;31495;42.740;22.908;2023-03-23T05:24:06;21.88;;;11.55;;
45792;SDS011;31495;42.740;22.908;2023-03-23T05:25:06;19.80;;;12.13;;
45792;SDS011;31495;42.740;22.908;2023-03-23T05:26:08;24.25;;;13.52;;
45792;SDS011;31495;42.740;22.908;2023-03-23T05:27:07;22.80;;;12.88;;
45792;SDS011;31495;42.740;22.908;2023-03-23T05:28:11;20.08;;;12.27;;
45792;SDS011;31495;42.740;22.908;2023-03-23T05:29:11;20.33;;;12.75;;
45792;SDS011;31495;42.740;22.908;2023-03-23T05:30:10;20.75;;;12.85;;
45792;SDS011;31495;42.740;22.908;2023-03-23T05:31:11;21.67;;;12.93;;
45792;SDS011;31495;42.740;22.908;2023-03-23T05:32:12;23.00;;;11.55;;
45792;SDS011;31495;42.740;22.908;2023-03-23T05:33:11;24.38;;;11.30;;
45792;SDS011;31495;42.740;22.908;2023-03-23T05:34:11;20.67;;;12.15;;
45792;SDS011;31495;42.740;22.908;2023-03-23T05:35:11;24.08;;;14.10;;
45792;SDS011;31495;42.740;22.908;2023-03-23T05:36:11;32.28;;;17.70;;
45792;SDS011;31495;42.740;22.908;2023-03-23T05:37:12;23.23;;;15.50;;
45792;SDS011;31495;42.740;22.908;2023-03-23T05:38:13;30.98;;;14.55;;
45792;SDS011;31495;42.740;22.908;2023-03-23T05:39:13;25.67;;;13.82;;
45792;SDS011;31495;42.740;22.908;2023-03-23T05:40:14;26.95;;;15.30;;
45792;SDS011;31495;42.740;22.908;2023-03-23T05:41:16;26.17;;;14.00;;
45792;SDS011;31495;42.740;22.908;2023-03-23T05:42:15;27.10;;;14.18;;
45792;SDS011;31495;42.740;22.908;2023-03-23T05:43:15;29.52;;;14.35;;
45792;SDS011;31495;42.740;22.908;2023-03-23T05:44:14;24.77;;;15.13;;
45792;SDS011;31495;42.740;22.908;2023-03-23T05:45:14;27.48;;;15.70;;
45792;SDS011;31495;42.740;22.908;2023-03-23T05:46:15;31.58;;;16.65;;
45792;SDS011;31495;42.740;22.908;2023-03-23T05:47:14;30.75;;;17.33;;
45792;SDS011;31495;42.740;22.908;2023-03-23T05:48:14;33.45;;;18.30;;
45792;SDS011;31495;42.740;22.908;2023-03-23T05:49:14;35.03;;;18.95;;
45792;SDS011;31495;42.740;22.908;2023-03-23T05:50:18;36.10;;;18.77;;
45792;SDS011;31495;42.740;22.908;2023-03-23T05:51:18;30.52;;;18.48;;
45792;SDS011;31495;42.740;22.908;2023-03-23T05:52:18;34.33;;;18.27;;
45792;SDS011;31495;42.740;22.908;2023-03-23T05:53:18;40.25;;;21.15;;
45792;SDS011;31495;42.740;22.908;2023-03-23T05:54:18;53.40;;;29.35;;
45792;SDS011;31495;42.740;22.908;2023-03-23T05:55:17;61.05;;;31.20;;
45792;SDS011;31495;42.740;22.908;2023-03-23T05:56:17;48.83;;;26.80;;
45792;SDS011;31495;42.740;22.908;2023-03-23T05:57:17;51.90;;;27.70;;
45792;SDS011;31495;42.740;22.908;2023-03-23T05:58:17;50.40;;;25.35;;
45792;SDS011;31495;42.740;22.908;2023-03-23T05:59:16;51.05;;;26.83;;
45792;SDS011;31495;42.740;22.908;2023-03-23T06:00:16;133.25;;;77.28;;
45792;SDS011;31495;42.740;22.908;2023-03-23T06:01:21;100.95;;;61.67;;
45792;SDS011;31495;42.740;22.908;2023-03-23T06:02:22;94.35;;;55.08;;
45792;SDS011;31495;42.740;22.908;2023-03-23T06:03:23;58.53;;;36.08;;
45792;SDS011;31495;42.740;22.908;2023-03-23T06:04:23;55.97;;;31.58;;
45792;SDS011;31495;42.740;22.908;2023-03-23T06:05:24;55.10;;;30.67;;
45792;SDS011;31495;42.740;22.908;2023-03-23T06:06:25;35.60;;;20.50;;
45792;SDS011;31495;42.740;22.908;2023-03-23T06:07:25;37.45;;;22.25;;
45792;SDS011;31495;42.740;22.908;2023-03-23T06:08:25;40.42;;;22.52;;
45792;SDS011;31495;42.740;22.908;2023-03-23T06:09:24;46.53;;;23.30;;
45792;SDS011;31495;42.740;22.908;2023-03-23T06:10:24;47.45;;;26.30;;
45792;SDS011;31495;42.740;22.908;2023-03-23T06:11:25;58.28;;;32.63;;
45792;SDS011;31495;42.740;22.908;2023-03-23T06:12:25;73.30;;;39.20;;
45792;SDS011;31495;42.740;22.908;2023-03-23T06:13:24;72.63;;;39.70;;
45792;SDS011;31495;42.740;22.908;2023-03-23T06:14:24;62.47;;;34.55;;
45792;SDS011;31495;42.740;22.908;2023-03-23T06:15:24;51.72;;;28.33;;
45792;SDS011;31495;42.740;22.908;2023-03-23T06:16:24;52.88;;;28.52;;
45792;SDS011;31495;42.740;22.908;2023-03-23T06:17:24;52.30;;;28.50;;